Time;durP1;ratioP1;P1;durP2;ratioP2;P2;SDS_P1;SDS_P2;PMS_P1;PMS_P2;Temp;Humidity;BMP_temperature;BMP_pressure;BME280_temperature;BME280_humidity;BME280_pressure;Samples;Min_cycle;Max_cycle;Signal;HPM_P1;HPM_P2
2022/03/30 00:00:44;;;;;;;32.58;14.85;;;;;;;7.44;97.66;100980.50;5012782;28;20030;-65
2022/03/30 00:03:10;;;;;;;31.48;15.30;;;;;;;7.35;97.63;100980.22;5011442;28;20109;-65
2022/03/30 00:05:35;;;;;;;34.20;15.55;;;;;;;7.38;98.70;100970.75;5013204;28;20033;-65
2022/03/30 00:08:00;;;;;;;34.50;16.05;;;;;;;7.33;98.48;100974.06;5013215;28;20062;-65
2022/03/30 00:10:26;;;;;;;35.63;16.95;;;;;;;7.20;98.72;100962.28;5012798;28;20106;-65
2022/03/30 00:12:51;;;;;;;32.30;16.00;;;;;;;7.19;99.55;100969.25;5013257;28;20482;-65
2022/03/30 00:15:17;;;;;;;33.40;15.70;;;;;;;7.18;99.08;100961.38;5012631;28;20025;-65
2022/03/30 00:17:43;;;;;;;32.70;15.50;;;;;;;7.19;98.71;100968.34;5011827;28;20061;-66
2022/03/30 00:20:10;;;;;;;34.13;16.27;;;;;;;7.14;99.07;100959.50;5008314;28;20029;-65
2022/03/30 00:22:36;;;;;;;36.03;14.90;;;;;;;7.11;98.79;100964.59;5013098;28;20034;-65
2022/03/30 00:25:01;;;;;;;36.13;15.63;;;;;;;7.03;99.87;100965.25;5010549;28;20052;-65
2022/03/30 00:27:26;;;;;;;29.02;15.50;;;;;;;7.07;100.00;100967.13;5008338;28;20022;-66
2022/03/30 00:29:52;;;;;;;32.33;15.48;;;;;;;7.03;99.79;100962.63;4993242;28;20021;-66
2022/03/30 00:32:17;;;;;;;29.38;16.13;;;;;;;7.06;100.00;100962.72;5012828;28;20030;-65
2022/03/30 00:34:44;;;;;;;35.50;16.05;;;;;;;7.05;99.36;100963.59;5011552;28;20115;-65
2022/03/30 00:37:10;;;;;;;36.85;17.95;;;;;;;7.05;100.00;100965.28;5011602;28;20043;-65
2022/03/30 00:39:35;;;;;;;31.65;15.80;;;;;;;7.08;99.39;100960.16;5012171;28;20063;-65
2022/03/30 00:42:01;;;;;;;31.00;15.95;;;;;;;6.91;99.28;100957.00;5012591;28;20458;-65
2022/03/30 00:44:26;;;;;;;29.95;13.82;;;;;;;7.00;100.00;100961.63;5012477;28;20030;-65
2022/03/30 00:46:52;;;;;;;26.73;14.75;;;;;;;6.99;99.34;100952.91;5011977;28;20025;-66
2022/03/30 00:49:17;;;;;;;30.85;14.40;;;;;;;6.93;99.19;100950.06;4993826;28;20091;-65
2022/03/30 00:51:43;;;;;;;33.78;15.35;;;;;;;6.98;100.00;100948.50;4992913;28;20093;-66
2022/03/30 00:54:09;;;;;;;40.08;16.13;;;;;;;6.97;100.00;100946.72;5012510;28;20114;-65
2022/03/30 00:56:38;;;;;;;39.40;16.23;;;;;;;6.97;99.80;100951.94;5012489;28;20036;-66
2022/03/30 00:59:05;;;;;;;28.75;14.57;;;;;;;6.82;100.00;100935.78;5011897;28;20033;-65
2022/03/30 01:01:32;;;;;;;36.00;14.68;;;;;;;6.75;100.00;100937.28;5009420;28;20390;-66
2022/03/30 01:03:57;;;;;;;35.13;14.02;;;;;;;6.69;100.00;100937.97;5009654;28;20029;-66
2022/03/30 01:06:23;;;;;;;32.38;15.57;;;;;;;6.74;100.00;100933.78;5010744;28;20478;-66
2022/03/30 01:08:48;;;;;;;32.67;15.18;;;;;;;6.56;100.00;100928.81;5011624;28;20056;-65
2022/03/30 01:11:15;;;;;;;38.15;14.48;;;;;;;6.54;100.00;100930.50;5011965;28;20072;-65
2022/03/30 01:13:41;;;;;;;28.38;14.27;;;;;;;6.55;100.00;100926.16;5011605;28;20022;-65
2022/03/30 01:16:06;;;;;;;36.00;15.90;;;;;;;6.57;100.00;100924.50;5011967;28;20121;-66
2022/03/30 01:18:41;;;;;;;32.80;15.52;;;;;;;6.51;100.00;100919.03;5009498;28;20125;-65
2022/03/30 01:21:08;;;;;;;33.95;15.00;;;;;;;6.46;100.00;100921.50;5011733;28;20033;-65
2022/03/30 01:23:34;;;;;;;31.33;14.32;;;;;;;6.32;100.00;100921.03;5009326;28;20037;-65
2022/03/30 01:25:59;;;;;;;29.98;17.00;;;;;;;6.43;100.00;100920.50;5011079;28;20058;-65
2022/03/30 01:28:28;;;;;;;38.95;15.05;;;;;;;6.37;100.00;100915.94;5010685;28;20473;-65
2022/03/30 01:33:42;;;;;;;35.45;15.15;;;;;;;6.27;100.00;100909.53;5010444;28;20100;-65
2022/03/30 01:36:08;;;;;;;33.38;14.57;;;;;;;6.27;100.00;100912.13;5011187;28;20125;-65
2022/03/30 01:38:33;;;;;;;30.30;14.98;;;;;;;6.22;100.00;100905.84;5012150;28;20026;-65
2022/03/30 01:40:58;;;;;;;37.15;16.25;;;;;;;6.19;100.00;100909.25;5012270;28;20025;-64
2022/03/30 01:43:24;;;;;;;34.63;14.63;;;;;;;6.20;100.00;100907.50;5010507;28;20137;-65
2022/03/30 01:45:49;;;;;;;33.40;15.05;;;;;;;6.15;100.00;100909.09;5012127;28;20109;-65
2022/03/30 01:48:14;;;;;;;35.88;15.10;;;;;;;6.04;100.00;100901.75;5010126;28;20029;-65
2022/03/30 01:50:40;;;;;;;28.83;15.98;;;;;;;6.15;100.00;100901.25;5010042;28;20022;-65
2022/03/30 01:53:05;;;;;;;40.38;16.05;;;;;;;6.10;100.00;100894.97;5011265;28;20105;-65
2022/03/30 01:55:31;;;;;;;29.50;13.77;;;;;;;6.15;100.00;100901.25;5012039;28;20152;-65
2022/03/30 01:57:56;;;;;;;29.77;14.88;;;;;;;6.10;100.00;100897.59;5011930;28;20378;-65
2022/03/30 02:00:24;;;;;;;45.15;14.95;;;;;;;6.06;100.00;100889.66;5010637;28;20032;-65
2022/03/30 02:02:49;;;;;;;38.72;15.85;;;;;;;6.13;100.00;100889.84;5008985;28;20049;-65
2022/03/30 02:05:17;;;;;;;33.60;15.25;;;;;;;5.96;100.00;100884.88;5011347;28;20072;-65
2022/03/30 02:07:43;;;;;;;31.92;14.05;;;;;;;5.96;100.00;100884.00;5011742;28;20026;-65
2022/03/30 02:10:08;;;;;;;39.50;15.98;;;;;;;5.90;100.00;100871.59;5011405;28;20040;-64
2022/03/30 02:12:34;;;;;;;35.72;16.02;;;;;;;5.89;100.00;100882.91;5011724;28;20044;-64
2022/03/30 02:15:00;;;;;;;30.58;14.57;;;;;;;6.02;100.00;100882.53;5011272;28;20032;-64
2022/03/30 02:17:27;;;;;;;44.47;15.95;;;;;;;6.06;100.00;100881.81;5011316;28;20133;-64
2022/03/30 02:19:55;;;;;;;32.83;15.32;;;;;;;5.97;100.00;100881.44;5007596;28;20033;-64
2022/03/30 02:22:21;;;;;;;32.97;15.27;;;;;;;5.88;100.00;100881.09;5013471;28;20022;-65
2022/03/30 02:24:47;;;;;;;35.97;15.77;;;;;;;5.80;100.00;100885.16;5014119;28;20033;-65
2022/03/30 02:27:12;;;;;;;38.00;14.80;;;;;;;5.90;100.00;100884.66;5014263;28;20034;-65
2022/03/30 02:29:38;;;;;;;39.67;15.18;;;;;;;5.80;100.00;100870.38;5014772;28;20482;-64
2022/03/30 02:32:03;;;;;;;33.42;15.48;;;;;;;5.80;100.00;100865.16;5013847;28;20445;-65
2022/03/30 02:34:30;;;;;;;36.08;14.63;;;;;;;5.71;100.00;100863.13;5014331;28;20034;-64
2022/03/30 02:36:55;;;;;;;31.48;15.02;;;;;;;5.54;100.00;100862.47;5014360;28;20030;-65
2022/03/30 02:39:20;;;;;;;36.95;15.27;;;;;;;5.66;100.00;100867.28;5010303;28;20112;-65
2022/03/30 02:41:46;;;;;;;33.83;14.95;;;;;;;5.71;100.00;100864.81;5012921;28;20025;-65
2022/03/30 02:44:12;;;;;;;40.95;16.00;;;;;;;5.72;100.00;100850.94;5013662;28;20033;-64
2022/03/30 02:46:39;;;;;;;36.08;14.38;;;;;;;5.62;100.00;100847.09;5012647;28;20022;-64
2022/03/30 02:49:04;;;;;;;37.90;14.98;;;;;;;5.65;100.00;100847.22;5013809;28;20026;-64
2022/03/30 02:51:30;;;;;;;30.05;15.15;;;;;;;5.53;100.00;100838.94;5011017;28;20028;-66
2022/03/30 02:53:55;;;;;;;31.65;15.25;;;;;;;5.60;100.00;100846.16;4995345;28;20710;-64
2022/03/30 02:56:21;;;;;;;36.00;15.70;;;;;;;5.50;100.00;100837.09;4995222;28;20038;-64
2022/03/30 02:58:46;;;;;;;32.85;15.35;;;;;;;5.63;100.00;100838.44;4990637;28;20076;-64
2022/03/30 03:01:12;;;;;;;33.85;15.57;;;;;;;5.55;100.00;100832.06;5014265;28;20038;-65
2022/03/30 03:03:37;;;;;;;29.83;15.30;;;;;;;5.42;100.00;100835.03;5013554;28;20485;-65
2022/03/30 03:06:03;;;;;;;38.05;15.07;;;;;;;5.32;100.00;100834.69;5014064;28;20594;-65
2022/03/30 03:08:28;;;;;;;34.85;15.63;;;;;;;5.31;100.00;100837.25;5013830;28;20084;-66
2022/03/30 03:10:54;;;;;;;28.48;14.63;;;;;;;5.13;100.00;100832.19;5014598;28;20036;-65
2022/03/30 03:13:20;;;;;;;32.50;15.10;;;;;;;5.05;100.00;100824.97;5007012;28;20034;-65
2022/03/30 03:15:46;;;;;;;28.92;14.93;;;;;;;5.12;100.00;100831.31;5013149;28;20065;-65
2022/03/30 03:18:13;;;;;;;36.10;16.23;;;;;;;5.09;100.00;100825.09;4994599;28;20069;-66
2022/03/30 03:20:42;;;;;;;31.73;14.43;;;;;;;5.22;100.00;100827.34;5012375;28;20053;-66
2022/03/30 03:23:07;;;;;;;38.97;15.02;;;;;;;5.21;100.00;100828.19;5012954;28;20116;-65
2022/03/30 03:25:33;;;;;;;33.17;14.43;;;;;;;5.21;100.00;100825.59;5013325;28;20073;-65
2022/03/30 03:28:00;;;;;;;35.60;15.82;;;;;;;5.24;100.00;100839.63;5012730;28;20025;-65
2022/03/30 03:30:26;;;;;;;32.55;13.90;;;;;;;5.18;100.00;100841.09;5013369;28;20029;-65
2022/03/30 03:32:52;;;;;;;42.85;15.43;;;;;;;5.22;100.00;100837.78;5013705;28;20478;-66
2022/03/30 03:35:17;;;;;;;35.90;15.15;;;;;;;5.11;100.00;100832.13;5012997;28;20036;-65
2022/03/30 03:37:43;;;;;;;26.25;13.90;;;;;;;5.17;100.00;100837.59;5013276;28;20057;-65
2022/03/30 03:40:09;;;;;;;29.52;14.57;;;;;;;5.17;100.00;100834.13;5013577;28;20354;-65
2022/03/30 03:42:36;;;;;;;33.00;16.05;;;;;;;5.10;100.00;100843.44;4999724;28;20034;-66
2022/03/30 03:45:03;;;;;;;30.15;14.90;;;;;;;4.99;100.00;100832.59;5013374;28;20030;-65
2022/03/30 03:47:28;;;;;;;40.40;15.65;;;;;;;5.00;100.00;100836.06;5009549;28;20034;-66
2022/03/30 03:49:53;;;;;;;39.50;15.65;;;;;;;5.04;100.00;100833.63;5013771;28;20044;-65
2022/03/30 03:52:19;;;;;;;32.88;14.63;;;;;;;5.02;100.00;100824.00;5011356;28;20026;-66
2022/03/30 03:54:44;;;;;;;30.85;14.02;;;;;;;4.90;100.00;100827.88;5013846;28;20112;-65
2022/03/30 03:57:09;;;;;;;36.53;15.15;;;;;;;5.00;100.00;100825.63;5013595;28;20454;-65
2022/03/30 03:59:35;;;;;;;30.92;14.75;;;;;;;5.24;100.00;100821.34;5011739;28;20469;-65
2022/03/30 04:02:02;;;;;;;34.15;15.50;;;;;;;5.25;100.00;100814.44;5012632;28;20366;-66
2022/03/30 04:04:27;;;;;;;35.42;15.25;;;;;;;5.13;100.00;100817.47;5011595;28;20112;-66
2022/03/30 04:06:53;;;;;;;33.08;14.07;;;;;;;5.11;100.00;100799.97;5013168;28;20113;-65
2022/03/30 04:09:18;;;;;;;29.15;13.73;;;;;;;5.12;100.00;100806.97;5012961;28;20105;-65
2022/03/30 04:11:44;;;;;;;42.25;15.20;;;;;;;5.09;100.00;100802.53;5013165;28;20442;-65
2022/03/30 04:14:09;;;;;;;39.35;15.15;;;;;;;5.10;100.00;100796.47;4995194;28;20034;-65
2022/03/30 04:16:34;;;;;;;37.13;14.90;;;;;;;4.93;100.00;100790.59;5013461;28;20116;-66
2022/03/30 04:19:00;;;;;;;30.58;13.27;;;;;;;4.94;100.00;100788.88;5009851;28;20530;-66
2022/03/30 04:21:25;;;;;;;35.92;14.90;;;;;;;4.82;100.00;100789.31;5011243;28;20032;-66
2022/03/30 04:23:50;;;;;;;30.42;13.52;;;;;;;4.73;100.00;100784.63;5012319;28;20021;-65
2022/03/30 04:26:16;;;;;;;35.75;15.40;;;;;;;4.61;100.00;100782.41;5013285;28;20492;-65
2022/03/30 04:28:41;;;;;;;32.13;13.70;;;;;;;4.53;100.00;100797.75;5009897;28;20419;-65
2022/03/30 04:31:08;;;;;;;40.78;15.73;;;;;;;4.53;100.00;100794.25;5011235;28;20505;-66
2022/03/30 04:33:34;;;;;;;30.33;13.63;;;;;;;4.52;100.00;100802.91;5012490;28;20053;-65
2022/03/30 04:35:59;;;;;;;37.38;14.13;;;;;;;4.52;100.00;100805.50;5011360;28;20034;-65
2022/03/30 04:38:25;;;;;;;31.73;15.07;;;;;;;4.50;100.00;100796.72;5012915;28;20481;-65
2022/03/30 04:40:50;;;;;;;32.25;15.07;;;;;;;4.35;100.00;100786.56;5012808;28;20026;-65
2022/03/30 04:43:15;;;;;;;40.83;16.48;;;;;;;4.39;100.00;100798.91;5010853;28;20053;-65
2022/03/30 04:45:41;;;;;;;32.38;15.38;;;;;;;4.27;100.00;100794.06;5008992;28;20073;-65
2022/03/30 04:48:06;;;;;;;32.20;15.65;;;;;;;4.30;100.00;100795.91;4995058;28;20026;-65
2022/03/30 04:50:31;;;;;;;42.65;15.90;;;;;;;4.29;100.00;100797.63;5009198;28;20037;-66
2022/03/30 04:52:57;;;;;;;31.35;14.35;;;;;;;4.21;100.00;100801.66;5009934;28;20026;-65
2022/03/30 04:55:22;;;;;;;40.22;15.27;;;;;;;4.33;100.00;100794.34;5011761;28;20045;-66
2022/03/30 04:57:47;;;;;;;39.40;14.80;;;;;;;4.30;100.00;100794.22;4994857;28;20029;-66
2022/03/30 05:00:13;;;;;;;38.20;15.52;;;;;;;4.24;100.00;100786.13;5009774;28;20025;-65
2022/03/30 05:02:40;;;;;;;38.50;16.27;;;;;;;4.39;100.00;100794.59;5011697;28;20116;-65
2022/03/30 05:05:08;;;;;;;39.70;18.42;;;;;;;4.38;100.00;100787.59;5011549;28;20026;-65
2022/03/30 05:07:33;;;;;;;34.83;15.55;;;;;;;4.27;100.00;100788.84;5010988;28;20504;-66
2022/03/30 05:09:59;;;;;;;38.90;16.48;;;;;;;4.29;100.00;100788.94;5004893;28;20030;-65
2022/03/30 05:12:24;;;;;;;42.20;16.67;;;;;;;4.19;100.00;100783.34;5012131;28;20046;-65
2022/03/30 05:14:50;;;;;;;43.08;16.77;;;;;;;4.35;100.00;100782.28;5011137;28;20109;-65
2022/03/30 05:17:15;;;;;;;38.67;17.08;;;;;;;4.30;100.00;100780.28;5010986;28;20042;-65
2022/03/30 05:19:40;;;;;;;45.25;17.80;;;;;;;4.44;100.00;100791.28;5011468;28;20037;-65
2022/03/30 05:22:06;;;;;;;36.45;16.55;;;;;;;4.31;100.00;100785.56;5009392;28;20053;-65
2022/03/30 05:24:31;;;;;;;44.40;16.65;;;;;;;4.34;100.00;100775.28;5010647;28;20497;-65
2022/03/30 05:26:57;;;;;;;35.30;16.02;;;;;;;4.35;100.00;100771.84;5010208;28;20029;-65
2022/03/30 05:29:23;;;;;;;50.33;17.20;;;;;;;4.35;100.00;100777.06;5011699;28;20042;-66
2022/03/30 05:31:49;;;;;;;45.45;17.17;;;;;;;4.47;100.00;100767.97;5010771;28;20045;-66
2022/03/30 05:34:14;;;;;;;44.85;18.98;;;;;;;4.49;100.00;100767.19;5012072;28;20555;-66
2022/03/30 05:36:40;;;;;;;41.95;17.13;;;;;;;4.51;100.00;100764.63;5006414;28;20058;-66
2022/03/30 05:39:05;;;;;;;34.92;17.25;;;;;;;4.47;100.00;100765.34;5009120;28;20041;-66
2022/03/30 05:41:30;;;;;;;40.05;17.60;;;;;;;4.53;100.00;100765.56;5010258;28;20030;-66
2022/03/30 05:43:56;;;;;;;52.85;17.45;;;;;;;4.45;100.00;100764.38;5010085;28;20042;-65
2022/03/30 05:46:21;;;;;;;51.65;18.98;;;;;;;4.47;100.00;100765.34;5011976;28;20103;-66
2022/03/30 05:48:47;;;;;;;35.10;16.55;;;;;;;4.38;100.00;100761.56;5011251;28;20036;-67
2022/03/30 05:51:12;;;;;;;44.08;17.25;;;;;;;4.45;100.00;100754.88;5011077;28;20108;-66
2022/03/30 05:53:38;;;;;;;48.75;17.70;;;;;;;4.28;100.00;100759.38;5007013;28;20384;-65
2022/03/30 05:56:04;;;;;;;43.47;17.17;;;;;;;4.48;100.00;100767.13;5011623;28;20108;-66
2022/03/30 05:58:29;;;;;;;43.45;19.40;;;;;;;4.29;100.00;100760.28;5013182;28;20034;-66
2022/03/30 06:00:55;;;;;;;42.15;17.70;;;;;;;4.39;100.00;100773.75;5013460;28;20397;-66
2022/03/30 06:03:20;;;;;;;51.75;20.52;;;;;;;4.30;100.00;100767.25;5014293;28;20030;-66
2022/03/30 06:05:46;;;;;;;51.10;20.13;;;;;;;4.30;100.00;100770.78;5010442;28;20042;-65
2022/03/30 06:08:11;;;;;;;45.38;18.75;;;;;;;4.39;100.00;100778.97;5014944;28;20029;-66
2022/03/30 06:10:37;;;;;;;53.15;19.45;;;;;;;4.45;100.00;100777.41;5014763;28;20029;-66
2022/03/30 06:13:02;;;;;;;35.97;17.88;;;;;;;4.59;100.00;100776.25;5014483;28;20457;-66
2022/03/30 06:15:28;;;;;;;40.42;18.13;;;;;;;4.69;100.00;100773.19;5014947;28;20022;-65
2022/03/30 06:17:55;;;;;;;47.58;19.48;;;;;;;4.72;100.00;100775.91;5014311;28;20050;-66
2022/03/30 06:20:25;;;;;;;49.67;18.70;;;;;;;4.80;100.00;100777.91;5010515;28;20109;-66
2022/03/30 06:22:54;;;;;;;48.22;18.35;;;;;;;4.88;100.00;100781.72;5014556;28;20029;-66
2022/03/30 06:25:24;;;;;;;54.90;18.83;;;;;;;4.83;100.00;100784.16;5014305;28;20535;-66
2022/03/30 06:27:50;;;;;;;39.30;19.02;;;;;;;4.79;100.00;100778.75;5013939;28;22203;-66
2022/03/30 06:30:16;;;;;;;42.10;18.17;;;;;;;4.82;100.00;100778.88;5013314;28;20026;-68
2022/03/30 06:32:42;;;;;;;46.70;18.73;;;;;;;4.89;100.00;100780.91;5016186;28;20048;-67
2022/03/30 06:35:07;;;;;;;41.88;18.08;;;;;;;5.03;100.00;100784.00;5014955;28;20476;-67
2022/03/30 06:37:33;;;;;;;50.33;18.55;;;;;;;5.16;100.00;100777.56;4996494;28;20029;-66
2022/03/30 06:39:58;;;;;;;43.03;18.60;;;;;;;5.20;100.00;100776.84;5013870;28;20033;-67
2022/03/30 06:42:24;;;;;;;43.33;19.15;;;;;;;5.26;100.00;100773.56;5012835;28;20409;-64
2022/03/30 06:44:49;;;;;;;40.33;17.38;;;;;;;5.30;100.00;100778.06;5015457;28;20083;-65
2022/03/30 06:47:15;;;;;;;45.92;18.33;;;;;;;5.28;100.00;100777.13;5014146;28;20025;-66
2022/03/30 06:49:40;;;;;;;44.92;18.50;;;;;;;5.36;100.00;100779.19;5014858;28;20486;-66
2022/03/30 06:52:06;;;;;;;44.83;18.52;;;;;;;5.43;100.00;100768.97;5014449;28;20022;-66
2022/03/30 06:54:34;;;;;;;48.92;19.00;;;;;;;5.50;100.00;100773.56;5012760;28;20061;-68
2022/03/30 06:57:00;;;;;;;47.15;19.33;;;;;;;5.43;100.00;100768.97;5010349;28;20053;-66
2022/03/30 06:59:27;;;;;;;49.15;18.20;;;;;;;5.51;100.00;100770.16;5013992;28;20033;-67
2022/03/30 07:01:53;;;;;;;41.15;18.45;;;;;;;5.55;100.00;100764.19;5014395;28;20079;-67
2022/03/30 07:04:19;;;;;;;43.13;19.58;;;;;;;5.57;100.00;100763.44;5014549;28;20025;-66
2022/03/30 07:12:12;;;;;;;32.60;18.02;;;;;;;5.66;100.00;100761.97;5002096;28;20037;-68
2022/03/30 07:14:38;;;;;;;38.22;17.70;;;;;;;5.72;100.00;100763.06;4996347;28;20463;-67
2022/03/30 07:17:03;;;;;;;46.65;18.45;;;;;;;5.78;100.00;100759.78;5014214;28;20107;-67
2022/03/30 07:19:29;;;;;;;51.90;19.45;;;;;;;5.82;100.00;100763.38;5013352;28;20553;-67
2022/03/30 07:21:54;;;;;;;36.97;18.10;;;;;;;5.87;100.00;100756.59;5013084;28;20029;-67
2022/03/30 07:24:20;;;;;;;48.10;18.30;;;;;;;5.95;100.00;100764.69;5010824;28;20494;-67
2022/03/30 07:26:45;;;;;;;39.28;17.45;;;;;;;5.96;100.00;100759.50;5012253;28;20022;-67
2022/03/30 07:29:10;;;;;;;60.28;20.00;;;;;;;5.94;100.00;100760.28;4995428;28;20477;-67
2022/03/30 07:31:36;;;;;;;35.80;17.65;;;;;;;5.98;100.00;100755.28;5012139;28;20041;-67
2022/03/30 07:34:01;;;;;;;45.42;18.85;;;;;;;6.08;100.00;100764.31;5010396;28;20022;-68
2022/03/30 07:36:26;;;;;;;39.53;18.25;;;;;;;6.16;100.00;100765.44;5011757;28;20105;-68
2022/03/30 07:38:52;;;;;;;43.90;20.98;;;;;;;6.17;100.00;100758.47;5014091;28;20489;-67
2022/03/30 07:41:17;;;;;;;44.85;19.15;;;;;;;6.31;100.00;100759.84;5012752;28;20068;-68
2022/03/30 07:43:43;;;;;;;44.67;19.58;;;;;;;6.33;100.00;100752.03;5013152;28;20034;-68
2022/03/30 07:46:11;;;;;;;36.88;19.52;;;;;;;6.41;100.00;100754.03;5011885;28;20026;-68
2022/03/30 07:48:37;;;;;;;38.38;19.80;;;;;;;6.50;100.00;100755.22;5008724;28;20021;-67
2022/03/30 07:51:02;;;;;;;53.72;19.48;;;;;;;6.60;100.00;100751.16;5015200;28;20033;-68
2022/03/30 07:53:29;;;;;;;46.17;18.17;;;;;;;6.66;100.00;100749.63;5015688;28;20032;-66
2022/03/30 07:55:55;;;;;;;41.35;18.45;;;;;;;6.71;100.00;100755.84;5016379;28;20089;-66
2022/03/30 07:58:21;;;;;;;36.00;19.08;;;;;;;6.83;100.00;100755.34;5011234;28;20541;-66
2022/03/30 08:00:47;;;;;;;39.95;18.17;;;;;;;7.04;100.00;100747.25;5017579;28;20024;-66
2022/03/30 08:03:12;;;;;;;48.88;17.80;;;;;;;7.15;100.00;100746.66;5013160;28;20101;-64
2022/03/30 08:05:37;;;;;;;40.50;17.52;;;;;;;7.34;100.00;100748.97;5025143;28;20487;-65
2022/03/30 08:08:03;;;;;;;31.48;15.75;;;;;;;7.47;100.00;100747.59;5026812;28;20026;-65
2022/03/30 08:10:29;;;;;;;39.22;17.75;;;;;;;7.72;100.00;100741.28;5021589;28;20622;-65
2022/03/30 08:12:54;;;;;;;40.75;17.33;;;;;;;7.69;100.00;100738.59;5011828;28;20026;-65
2022/03/30 08:15:21;;;;;;;33.75;16.35;;;;;;;7.84;100.00;100738.09;5013212;28;20033;-66
2022/03/30 08:17:46;;;;;;;28.33;13.73;;;;;;;8.05;100.00;100735.13;5029349;28;20060;-65
2022/03/30 08:22:25;;;;;;;33.28;14.10;;;;;;;8.09;100.00;100742.22;5017242;28;20381;-65
2022/03/30 08:22:57;;;;;;;31.48;13.13;;;;;;;8.30;100.00;100740.97;5020444;28;20462;-65
2022/03/30 08:25:23;;;;;;;18.58;9.05;;;;;;;8.39;100.00;100735.94;5000026;28;20522;-65
2022/03/30 08:27:49;;;;;;;23.02;7.78;;;;;;;8.30;98.89;100729.59;5021013;28;20155;-65
2022/03/30 08:30:14;;;;;;;11.95;7.10;;;;;;;8.31;98.62;100732.25;5026242;28;20080;-65
2022/03/30 08:32:39;;;;;;;14.27;7.10;;;;;;;8.36;98.74;100741.13;5022358;28;20025;-65
2022/03/30 08:35:07;;;;;;;18.70;8.00;;;;;;;8.38;98.67;100739.44;5019350;28;20097;-65
2022/03/30 08:37:33;;;;;;;23.95;5.95;;;;;;;8.34;99.01;100727.13;5029221;28;20029;-66
2022/03/30 08:39:58;;;;;;;21.88;6.95;;;;;;;8.37;98.98;100731.50;5016944;28;20075;-65
2022/03/30 08:42:24;;;;;;;23.70;7.07;;;;;;;8.63;97.31;100723.41;5014065;28;20025;-65
2022/03/30 08:44:49;;;;;;;17.67;6.10;;;;;;;8.58;96.41;100725.94;5013973;28;20384;-65
2022/03/30 08:47:15;;;;;;;24.85;6.35;;;;;;;8.55;95.79;100725.88;5015730;28;20018;-65
2022/03/30 08:49:42;;;;;;;13.00;6.05;;;;;;;8.58;94.85;100715.44;5029666;28;20036;-65
2022/03/30 08:52:09;;;;;;;14.65;5.78;;;;;;;8.89;95.53;100718.75;5021907;28;20082;-65
2022/03/30 08:54:35;;;;;;;15.02;5.03;;;;;;;9.11;93.65;100713.09;5023142;28;20038;-65
2022/03/30 08:57:02;;;;;;;7.00;4.57;;;;;;;8.98;91.79;100708.44;5025426;28;20033;-65
2022/03/30 08:59:27;;;;;;;18.23;6.45;;;;;;;9.18;91.78;100711.44;5015288;28;20033;-65
2022/03/30 09:01:55;;;;;;;14.07;5.57;;;;;;;9.27;91.59;100710.78;5015435;28;20014;-65
2022/03/30 09:04:21;;;;;;;57.53;8.60;;;;;;;9.18;91.49;100707.94;5024984;28;20026;-66
2022/03/30 09:06:58;;;;;;;9.13;4.40;;;;;;;9.26;90.40;100712.53;5016499;28;20037;-65
2022/03/30 09:09:41;;;;;;;8.20;5.07;;;;;;;9.13;90.41;100706.97;5012143;28;20034;-65
2022/03/30 09:12:09;;;;;;;11.68;5.00;;;;;;;9.06;91.24;100713.84;5003954;28;20021;-65
2022/03/30 09:14:37;;;;;;;6.88;4.85;;;;;;;9.07;91.31;100710.34;5022786;28;20022;-66
2022/03/30 09:17:05;;;;;;;8.93;4.80;;;;;;;9.01;91.73;100711.13;5016953;28;20543;-65
2022/03/30 09:19:39;;;;;;;7.10;4.97;;;;;;;9.03;90.62;100712.03;5021368;28;20057;-65
2022/03/30 09:22:06;;;;;;;9.23;4.72;;;;;;;9.03;90.80;100703.28;5026746;28;20022;-65
2022/03/30 09:24:34;;;;;;;29.38;8.38;;;;;;;9.30;90.51;100716.06;5012268;28;20113;-65
2022/03/30 09:27:01;;;;;;;45.97;8.70;;;;;;;9.33;89.47;100712.63;5025139;28;20366;-65
2022/03/30 09:29:29;;;;;;;31.60;7.47;;;;;;;9.61;87.95;100707.03;5015646;28;20097;-65
2022/03/30 09:31:55;;;;;;;41.95;8.18;;;;;;;9.72;87.75;100706.34;5025479;28;20033;-65
2022/03/30 09:34:21;;;;;;;33.28;7.28;;;;;;;9.87;86.35;100697.84;5023842;28;20036;-65
2022/03/30 09:36:51;;;;;;;10.88;5.00;;;;;;;9.88;85.60;100707.50;5007098;28;20026;-65
2022/03/30 09:39:36;;;;;;;77.05;12.43;;;;;;;10.00;85.35;100702.44;5018130;28;20029;-65
2022/03/30 09:42:04;;;;;;;28.42;7.00;;;;;;;9.84;85.84;100700.44;5018387;28;20415;-65
2022/03/30 09:44:31;;;;;;;12.63;5.78;;;;;;;9.99;83.31;100695.41;5027137;28;20369;-65
2022/03/30 09:47:03;;;;;;;8.05;5.18;;;;;;;9.86;84.72;100688.19;5009656;28;20136;-65
2022/03/30 09:49:45;;;;;;;15.82;5.43;;;;;;;9.79;84.36;100682.84;5016102;28;20101;-65
2022/03/30 09:52:20;;;;;;;9.80;5.03;;;;;;;9.99;85.02;100684.91;5002792;28;20076;-65
2022/03/30 09:54:49;;;;;;;8.40;5.80;;;;;;;10.54;82.52;100684.00;5009480;28;20493;-66
2022/03/30 09:57:23;;;;;;;12.25;5.57;;;;;;;10.41;81.99;100675.94;5003115;28;20030;-65
2022/03/30 09:59:55;;;;;;;;;;;;;;;10.82;81.39;100679.13;5026181;28;20036;-65
2022/03/30 10:02:20;;;;;;;8.90;6.07;;;;;;;11.27;80.08;100677.88;5025250;28;19909;-65
2022/03/30 10:04:46;;;;;;;9.77;6.28;;;;;;;11.24;80.15;100676.09;5024565;28;20029;-65
2022/03/30 10:07:12;;;;;;;16.27;7.55;;;;;;;11.60;79.27;100672.09;5018063;28;20409;-66
2022/03/30 10:09:39;;;;;;;13.65;7.82;;;;;;;11.54;76.74;100672.03;5023263;28;20029;-66
2022/03/30 10:12:05;;;;;;;15.43;7.95;;;;;;;11.70;77.56;100670.41;5022676;28;20061;-65
2022/03/30 10:14:34;;;;;;;16.25;7.93;;;;;;;11.74;78.21;100669.56;5025928;28;20086;-66
2022/03/30 10:17:00;;;;;;;17.80;8.15;;;;;;;11.82;76.89;100662.63;5004427;28;20034;-67
2022/03/30 10:19:25;;;;;;;16.23;8.52;;;;;;;11.55;78.04;100665.88;5032459;28;20052;-67
2022/03/30 10:22:10;;;;;;;12.60;6.60;;;;;;;11.84;74.88;100659.13;5018331;28;20480;-67
2022/03/30 10:25:06;;;;;;;13.32;8.13;;;;;;;11.80;74.59;100664.38;5032082;28;20065;-67
2022/03/30 10:27:56;;;;;;;16.80;7.93;;;;;;;11.96;75.13;100660.16;5016148;28;20045;-66
2022/03/30 10:30:29;;;;;;;13.88;7.85;;;;;;;12.25;75.41;100667.38;5027745;28;20040;-67
2022/03/30 10:32:59;;;;;;;12.48;7.10;;;;;;;12.21;73.06;100660.31;5022056;28;20029;-66
2022/03/30 10:35:48;;;;;;;12.63;7.35;;;;;;;11.97;72.93;100661.03;5031483;28;20091;-66
2022/03/30 10:38:15;;;;;;;9.20;5.80;;;;;;;12.45;71.39;100658.69;5011448;28;20025;-68
2022/03/30 10:40:42;;;;;;;9.35;5.68;;;;;;;12.60;70.80;100664.09;5024602;28;20064;-66
2022/03/30 10:43:08;;;;;;;15.05;5.45;;;;;;;12.85;68.14;100655.41;5027966;28;20552;-66
2022/03/30 10:45:43;;;;;;;8.27;5.55;;;;;;;13.48;67.73;100656.50;5017781;28;20040;-66
2022/03/30 10:48:21;;;;;;;12.05;6.15;;;;;;;13.45;65.79;100656.47;5018138;28;20033;-68
2022/03/30 10:51:01;;;;;;;11.13;6.07;;;;;;;13.82;64.73;100650.31;5025457;28;20053;-67
2022/03/30 10:53:30;;;;;;;11.25;5.97;;;;;;;13.78;64.07;100656.50;5017988;28;20120;-67
2022/03/30 10:56:15;;;;;;;8.07;5.82;;;;;;;13.45;62.25;100648.53;5017822;28;20080;-67
2022/03/30 10:58:49;;;;;;;10.05;6.45;;;;;;;12.78;66.03;100647.44;5020672;28;20030;-67
2022/03/30 11:01:28;;;;;;;9.10;6.03;;;;;;;13.21;66.53;100646.72;5020467;28;20061;-67
2022/03/30 11:03:57;;;;;;;10.00;5.97;;;;;;;13.44;62.64;100633.56;5011866;28;20029;-66
2022/03/30 11:06:23;;;;;;;11.32;6.20;;;;;;;12.89;65.26;100631.63;5025466;28;20040;-66
2022/03/30 11:08:48;;;;;;;10.07;5.57;;;;;;;13.08;64.83;100624.66;5023184;28;20034;-67
2022/03/30 11:11:27;;;;;;;7.78;5.22;;;;;;;13.69;64.02;100620.38;5017594;28;20033;-66
2022/03/30 11:14:31;;;;;;;31.63;6.65;;;;;;;14.25;62.05;100607.06;4995277;28;20092;-66
2022/03/30 11:17:08;;;;;;;15.73;5.82;;;;;;;14.45;60.07;100597.31;5007826;28;20084;-68
2022/03/30 11:19:54;;;;;;;6.65;4.70;;;;;;;14.47;61.02;100607.88;5010115;28;20076;-68
2022/03/30 11:22:36;;;;;;;10.02;5.93;;;;;;;13.60;61.53;100607.13;5011969;28;20474;-67